Time;durP1;ratioP1;P1;durP2;ratioP2;P2;SDS_P1;SDS_P2;PMS_P1;PMS_P2;Temp;Humidity;BMP_temperature;BMP_pressure;BME280_temperature;BME280_humidity;BME280_pressure;Samples;Min_cycle;Max_cycle;Signal;HPM_P1;HPM_P2
2023/01/19 00:00:04;;;;;;;2.40;1.30;;;;;;;;;;5026383;28;20037;-62
2023/01/19 00:02:31;;;;;;;5.43;1.23;;;;;;;;;;5042119;28;20047;-61
2023/01/19 00:04:58;;;;;;;3.20;1.40;;;;;;;;;;5045804;28;20102;-62
2023/01/19 00:07:25;;;;;;;2.65;1.10;;;;;;;;;;5050117;28;20033;-61
2023/01/19 00:09:51;;;;;;;5.65;0.95;;;;;;;;;;5051545;28;20491;-61
2023/01/19 00:12:18;;;;;;;1.42;0.82;;;;;;;;;;5051813;28;20495;-61
2023/01/19 00:14:45;;;;;;;0.90;0.80;;;;;;;;;;5051241;28;20376;-61
2023/01/19 00:17:11;;;;;;;1.55;0.60;;;;;;;;;;5039581;28;20052;-61
2023/01/19 00:19:38;;;;;;;3.95;0.98;;;;;;;;;;5045766;28;20028;-61
2023/01/19 00:22:05;;;;;;;0.82;0.70;;;;;;;;;;5046002;28;20472;-60
2023/01/19 00:24:32;;;;;;;11.30;1.33;;;;;;;;;;5045930;28;20489;-60
2023/01/19 00:26:59;;;;;;;3.87;1.30;;;;;;;;;;5046205;28;20357;-61
2023/01/19 00:29:26;;;;;;;1.70;0.93;;;;;;;;;;5043263;28;20018;-61
2023/01/19 00:31:53;;;;;;;1.60;0.73;;;;;;;;;;5031506;28;20126;-63
2023/01/19 00:34:19;;;;;;;1.23;1.07;;;;;;;;;;5031895;28;20025;-62
2023/01/19 00:36:46;;;;;;;1.27;0.80;;;;;;;;;;5048999;28;20060;-61
2023/01/19 00:39:13;;;;;;;2.70;1.10;;;;;;;;;;5054570;28;20033;-62
2023/01/19 00:44:24;;;;;;;3.53;0.97;;;;;;;;;;5029815;28;20047;-61
2023/01/19 00:46:51;;;;;;;2.53;1.20;;;;;;;;;;5033406;28;20103;-61
2023/01/19 00:49:18;;;;;;;3.90;1.63;;;;;;;;;;5029744;28;20036;-61
2023/01/19 00:51:44;;;;;;;2.93;1.83;;;;;;;;;;5034420;28;20120;-61
2023/01/19 00:54:11;;;;;;;4.70;1.60;;;;;;;;;;5053434;28;20531;-61
2023/01/19 00:56:38;;;;;;;2.70;1.60;;;;;;;;;;5054934;28;20079;-61
2023/01/19 00:59:05;;;;;;;2.40;1.20;;;;;;;;;;5054495;28;20108;-61
2023/01/19 01:01:31;;;;;;;29.57;1.27;;;;;;;;;;5054560;28;20036;-61
2023/01/19 01:03:58;;;;;;;3.40;1.70;;;;;;;;;;5045822;28;20476;-61
2023/01/19 01:06:25;;;;;;;48.23;2.27;;;;;;;;;;5029259;28;20113;-61
2023/01/19 01:08:51;;;;;;;3.87;1.77;;;;;;;;;;5029352;28;20420;-61
2023/01/19 01:11:18;;;;;;;3.57;1.20;;;;;;;;;;5029411;28;20039;-61
2023/01/19 01:13:45;;;;;;;11.23;1.90;;;;;;;;;;5033299;28;20029;-61
2023/01/19 01:16:11;;;;;;;8.67;1.33;;;;;;;;;;5038153;28;20108;-61
2023/01/19 01:18:38;;;;;;;2.30;1.23;;;;;;;;;;5051674;28;20029;-61
2023/01/19 01:21:06;;;;;;;1.63;1.13;;;;;;;;;;5034377;28;20105;-62
2023/01/19 01:23:33;;;;;;;13.93;1.70;;;;;;;;;;5034016;28;20032;-61
2023/01/19 01:25:59;;;;;;;2.10;1.20;;;;;;;;;;5030193;28;20037;-61
2023/01/19 01:28:26;;;;;;;9.73;1.60;;;;;;;;;;5039028;28;20130;-61
2023/01/19 01:30:54;;;;;;;5.40;1.27;;;;;;;;;;5048483;28;20029;-60
2023/01/19 01:33:20;;;;;;;1.10;0.73;;;;;;;;;;5048378;28;20032;-61
2023/01/19 01:35:48;;;;;;;1.87;1.07;;;;;;;;;;5035746;28;20499;-61
2023/01/19 01:38:15;;;;;;;2.20;1.23;;;;;;;;;;5049943;28;20029;-61
2023/01/19 01:40:42;;;;;;;1.73;0.73;;;;;;;;;;5042309;28;20087;-61
2023/01/19 01:43:12;;;;;;;8.77;2.10;;;;;;;;;;5034064;28;20118;-60
2023/01/19 01:45:40;;;;;;;2.13;1.03;;;;;;;;;;5049402;28;20029;-62
2023/01/19 01:48:22;;;;;;;8.43;1.90;;;;;;;;;;5049879;28;20052;-61
2023/01/19 01:53:37;;;;;;;6.73;2.07;;;;;;;;;;5043037;28;20389;-61
2023/01/19 01:56:06;;;;;;;9.57;2.23;;;;;;;;;;5028216;28;20540;-61
2023/01/19 01:58:33;;;;;;;4.03;1.10;;;;;;;;;;5032688;28;20037;-61
2023/01/19 02:03:45;;;;;;;;;;;;;;;;;;5034441;28;20194;-61
2023/01/19 02:06:12;;;;;;;2.30;1.27;;;;;;;;;;5033619;28;19909;-61
2023/01/19 02:14:23;;;;;;;;;;;;;;;;;;5044642;28;20096;-61
2023/01/19 02:16:50;;;;;;;12.70;1.97;;;;;;;;;;5044849;28;19971;-61
2023/01/19 02:19:21;;;;;;;1.90;1.30;;;;;;;;;;5028817;28;20112;-61
2023/01/19 02:21:59;;;;;;;2.67;1.80;;;;;;;;;;5040140;28;20041;-61
2023/01/19 02:24:28;;;;;;;1.80;1.10;;;;;;;;;;5053030;28;20541;-61
2023/01/19 02:26:55;;;;;;;4.17;1.10;;;;;;;;;;5053149;28;20033;-61
2023/01/19 02:29:24;;;;;;;7.13;2.57;;;;;;;;;;5052540;28;20041;-61
2023/01/19 02:31:51;;;;;;;3.27;1.60;;;;;;;;;;5044714;28;20053;-62
2023/01/19 02:34:19;;;;;;;4.80;1.80;;;;;;;;;;5037324;28;20071;-63
2023/01/19 02:36:57;;;;;;;1.80;1.20;;;;;;;;;;5033728;28;20515;-60
2023/01/19 02:39:28;;;;;;;1.10;0.80;;;;;;;;;;5039012;28;20440;-60
2023/01/19 02:41:57;;;;;;;4.60;1.87;;;;;;;;;;5048936;28;20037;-61
2023/01/19 02:44:24;;;;;;;5.57;1.73;;;;;;;;;;5040778;28;20383;-60
2023/01/19 02:46:54;;;;;;;3.10;1.30;;;;;;;;;;5052340;28;20045;-61
2023/01/19 02:49:20;;;;;;;1.53;1.13;;;;;;;;;;5050988;28;20036;-61
2023/01/19 02:51:47;;;;;;;1.13;0.83;;;;;;;;;;5052148;28;20160;-61
2023/01/19 02:54:23;;;;;;;3.43;1.63;;;;;;;;;;5045571;28;20056;-61
2023/01/19 02:56:52;;;;;;;1.27;0.90;;;;;;;;;;5026923;28;20029;-61
2023/01/19 02:59:22;;;;;;;4.00;1.83;;;;;;;;;;5027058;28;20377;-61
2023/01/19 03:01:56;;;;;;;1.63;0.93;;;;;;;;;;5026811;28;20064;-60
2023/01/19 03:04:31;;;;;;;4.53;2.03;;;;;;;;;;5029275;28;20033;-61
2023/01/19 03:07:02;;;;;;;4.55;2.17;;;;;;;;;;5052641;28;20025;-60
2023/01/19 03:09:28;;;;;;;7.23;1.13;;;;;;;;;;5052230;28;20055;-61
2023/01/19 03:12:02;;;;;;;3.30;1.20;;;;;;;;;;5052039;28;20391;-61
2023/01/19 03:14:32;;;;;;;2.17;1.47;;;;;;;;;;5051850;28;20029;-61
2023/01/19 03:17:01;;;;;;;1.77;1.20;;;;;;;;;;5041844;28;20026;-61
2023/01/19 03:19:39;;;;;;;8.93;2.03;;;;;;;;;;5033746;28;20028;-61
2023/01/19 03:22:22;;;;;;;8.40;1.87;;;;;;;;;;5044802;28;20033;-61
2023/01/19 03:24:50;;;;;;;6.33;2.43;;;;;;;;;;5046530;28;20025;-61
2023/01/19 03:27:40;;;;;;;4.90;1.87;;;;;;;;;;5032069;28;20120;-61
2023/01/19 03:30:17;;;;;;;2.30;1.43;;;;;;;;;;5024889;28;20530;-61
2023/01/19 03:32:53;;;;;;;4.70;2.00;;;;;;;;;;5037484;28;20056;-61
2023/01/19 03:35:22;;;;;;;2.90;1.87;;;;;;;;;;5050121;28;20044;-61
2023/01/19 03:37:51;;;;;;;2.17;1.50;;;;;;;;;;5037148;28;20032;-61
2023/01/19 03:40:17;;;;;;;2.80;1.47;;;;;;;;;;5046669;28;20449;-61
2023/01/19 03:42:45;;;;;;;11.13;2.17;;;;;;;;;;5040803;28;20196;-61
2023/01/19 03:45:12;;;;;;;4.27;2.07;;;;;;;;;;5030455;28;20022;-61
2023/01/19 03:47:39;;;;;;;2.43;1.30;;;;;;;;;;5030756;28;20423;-61
2023/01/19 03:50:09;;;;;;;2.53;1.50;;;;;;;;;;5049318;28;20397;-61
2023/01/19 03:52:35;;;;;;;2.47;1.80;;;;;;;;;;5045788;28;20512;-61
2023/01/19 03:55:03;;;;;;;6.83;2.60;;;;;;;;;;5032119;28;20473;-61
2023/01/19 03:57:30;;;;;;;3.13;1.70;;;;;;;;;;5031742;28;20420;-61
2023/01/19 03:59:57;;;;;;;0.90;0.67;;;;;;;;;;5031902;28;20036;-61
2023/01/19 04:02:24;;;;;;;2.70;1.10;;;;;;;;;;5027540;28;20033;-62
2023/01/19 04:04:51;;;;;;;1.73;1.10;;;;;;;;;;5033284;28;20098;-61
2023/01/19 04:07:17;;;;;;;1.73;1.10;;;;;;;;;;5046572;28;20013;-61
2023/01/19 04:09:44;;;;;;;0.87;0.83;;;;;;;;;;5047588;28;20025;-62
2023/01/19 04:12:11;;;;;;;0.90;0.70;;;;;;;;;;5053541;28;20029;-61
2023/01/19 04:14:37;;;;;;;5.87;2.00;;;;;;;;;;5055667;28;20041;-61
2023/01/19 04:17:04;;;;;;;6.57;2.23;;;;;;;;;;5055888;28;20075;-61
2023/01/19 04:19:31;;;;;;;15.50;2.33;;;;;;;;;;5054775;28;20033;-61
2023/01/19 04:21:58;;;;;;;3.50;1.93;;;;;;;;;;5055189;28;20065;-61
2023/01/19 04:24:25;;;;;;;5.77;3.10;;;;;;;;;;5051942;28;20044;-62
2023/01/19 04:26:52;;;;;;;1.20;0.70;;;;;;;;;;5046815;28;20356;-61
2023/01/19 04:29:19;;;;;;;6.10;1.37;;;;;;;;;;5036277;28;20043;-61
2023/01/19 04:31:45;;;;;;;7.10;2.27;;;;;;;;;;5049598;28;20368;-61
2023/01/19 04:34:12;;;;;;;2.67;1.63;;;;;;;;;;5052321;28;20025;-61
2023/01/19 04:36:39;;;;;;;1.50;0.87;;;;;;;;;;5041954;28;20033;-61
2023/01/19 04:39:07;;;;;;;1.17;0.90;;;;;;;;;;5047240;28;20082;-62
2023/01/19 04:41:34;;;;;;;1.17;0.90;;;;;;;;;;5035345;28;20041;-61
2023/01/19 04:44:01;;;;;;;5.13;1.63;;;;;;;;;;5035017;28;20101;-61
2023/01/19 04:46:27;;;;;;;1.77;1.33;;;;;;;;;;5032607;28;20021;-61
2023/01/19 04:48:54;;;;;;;4.37;2.40;;;;;;;;;;5029599;28;20072;-61
2023/01/19 04:51:21;;;;;;;3.03;1.57;;;;;;;;;;5029671;28;20029;-62
2023/01/19 04:53:47;;;;;;;2.17;1.57;;;;;;;;;;5029352;28;20025;-61
2023/01/19 04:56:14;;;;;;;1.27;1.00;;;;;;;;;;5031537;28;20567;-61
2023/01/19 04:58:41;;;;;;;2.40;1.47;;;;;;;;;;5049649;28;20360;-61
2023/01/19 05:01:08;;;;;;;1.80;1.23;;;;;;;;;;5045965;28;20377;-61
2023/01/19 05:03:35;;;;;;;2.13;1.33;;;;;;;;;;5035035;28;20017;-61
2023/01/19 05:06:02;;;;;;;3.03;1.77;;;;;;;;;;5034662;28;20087;-61
2023/01/19 05:08:29;;;;;;;1.03;0.83;;;;;;;;;;5032373;28;20021;-61
2023/01/19 05:10:56;;;;;;;3.60;1.20;;;;;;;;;;5028945;28;20041;-61
2023/01/19 05:13:23;;;;;;;9.93;2.60;;;;;;;;;;5029242;28;20030;-61
2023/01/19 05:15:50;;;;;;;3.30;1.80;;;;;;;;;;5030391;28;20021;-61
2023/01/19 05:18:18;;;;;;;3.33;1.30;;;;;;;;;;5049583;28;20414;-61
2023/01/19 05:20:45;;;;;;;1.90;1.37;;;;;;;;;;5034237;28;20048;-61
2023/01/19 05:23:12;;;;;;;1.73;1.53;;;;;;;;;;5034262;28;20041;-61
2023/01/19 05:25:39;;;;;;;9.50;1.67;;;;;;;;;;5034494;28;20499;-60
2023/01/19 05:28:06;;;;;;;1.40;1.10;;;;;;;;;;5034005;28;20017;-61
2023/01/19 05:30:32;;;;;;;6.23;2.20;;;;;;;;;;5032724;28;20113;-61
2023/01/19 05:32:59;;;;;;;2.47;1.47;;;;;;;;;;5045774;28;20025;-60
2023/01/19 05:35:26;;;;;;;1.30;1.00;;;;;;;;;;5044057;28;20034;-60
2023/01/19 05:37:52;;;;;;;2.03;1.57;;;;;;;;;;5043840;28;20016;-61
2023/01/19 05:40:20;;;;;;;1.63;1.17;;;;;;;;;;5044760;28;20507;-61
2023/01/19 05:42:47;;;;;;;3.37;1.70;;;;;;;;;;5053969;28;20041;-60
2023/01/19 05:45:13;;;;;;;20.37;1.80;;;;;;;;;;5052185;28;20032;-60
2023/01/19 05:47:40;;;;;;;2.70;1.60;;;;;;;;;;5034110;28;20052;-60
2023/01/19 05:50:07;;;;;;;4.07;2.07;;;;;;;;;;5034029;28;20037;-61
2023/01/19 05:52:33;;;;;;;2.30;1.53;;;;;;;;;;5042789;28;20061;-60
2023/01/19 05:55:00;;;;;;;4.20;2.47;;;;;;;;;;5044206;28;20021;-60
2023/01/19 05:57:27;;;;;;;3.23;1.73;;;;;;;;;;5048353;28;20086;-61
2023/01/19 05:59:53;;;;;;;2.37;0.93;;;;;;;;;;5048056;28;20522;-60
2023/01/19 06:02:27;;;;;;;2.17;1.70;;;;;;;;;;5046888;28;20037;-60
2023/01/19 06:04:54;;;;;;;4.20;2.30;;;;;;;;;;5033606;28;20025;-61
2023/01/19 06:07:20;;;;;;;5.67;2.50;;;;;;;;;;5033649;28;20099;-60
2023/01/19 06:09:47;;;;;;;2.43;1.50;;;;;;;;;;5033627;28;20036;-61
2023/01/19 06:12:14;;;;;;;1.80;1.50;;;;;;;;;;5052006;28;20036;-60
2023/01/19 06:14:40;;;;;;;4.97;1.53;;;;;;;;;;5052685;28;20021;-61
2023/01/19 06:17:07;;;;;;;2.77;1.83;;;;;;;;;;5035574;28;20029;-60
2023/01/19 06:19:34;;;;;;;0.83;0.77;;;;;;;;;;5028120;28;20057;-61
2023/01/19 06:22:01;;;;;;;3.93;2.17;;;;;;;;;;5027947;28;20038;-61
2023/01/19 06:24:28;;;;;;;1.53;1.30;;;;;;;;;;5027872;28;20045;-60
2023/01/19 06:26:55;;;;;;;3.33;1.20;;;;;;;;;;5033182;28;20014;-60
2023/01/19 06:29:21;;;;;;;5.07;1.00;;;;;;;;;;5033267;28;20036;-60
2023/01/19 06:31:48;;;;;;;11.77;1.77;;;;;;;;;;5040761;28;20112;-60
2023/01/19 06:34:15;;;;;;;2.27;1.63;;;;;;;;;;5035935;28;20025;-60
2023/01/19 06:36:41;;;;;;;1.53;1.17;;;;;;;;;;5052512;28;20037;-60
2023/01/19 06:39:09;;;;;;;2.10;0.83;;;;;;;;;;5047340;28;20424;-60
2023/01/19 06:41:36;;;;;;;1.33;1.00;;;;;;;;;;5047219;28;20045;-60
2023/01/19 06:44:03;;;;;;;3.17;2.00;;;;;;;;;;5047247;28;20017;-60
2023/01/19 06:46:29;;;;;;;1.53;0.80;;;;;;;;;;5047070;28;20056;-60
2023/01/19 06:48:56;;;;;;;1.93;1.17;;;;;;;;;;5044339;28;20112;-60
2023/01/19 06:51:24;;;;;;;1.40;1.07;;;;;;;;;;5032676;28;20017;-60
2023/01/19 06:53:50;;;;;;;1.33;0.97;;;;;;;;;;5042147;28;20044;-60
2023/01/19 06:56:17;;;;;;;2.57;1.30;;;;;;;;;;5052419;28;20041;-60
2023/01/19 06:58:44;;;;;;;1.23;0.83;;;;;;;;;;5052450;28;20421;-60
2023/01/19 07:01:10;;;;;;;0.87;0.80;;;;;;;;;;5047423;28;20025;-61
2023/01/19 07:03:37;;;;;;;3.70;2.30;;;;;;;;;;5035654;28;20033;-60
2023/01/19 07:06:05;;;;;;;1.90;0.93;;;;;;;;;;5041626;28;20025;-61
2023/01/19 07:08:32;;;;;;;3.37;2.10;;;;;;;;;;5046348;28;20052;-60
2023/01/19 07:11:06;;;;;;;1.40;1.10;;;;;;;;;;5050583;28;20033;-61
2023/01/19 07:13:33;;;;;;;10.07;2.67;;;;;;;;;;5052059;28;20033;-61
2023/01/19 07:16:10;;;;;;;4.57;2.50;;;;;;;;;;5050700;28;20030;-61
2023/01/19 07:18:38;;;;;;;2.30;1.97;;;;;;;;;;5032969;28;20038;-60
2023/01/19 07:21:05;;;;;;;1.77;1.37;;;;;;;;;;5032136;28;20025;-60
2023/01/19 07:23:32;;;;;;;2.67;1.93;;;;;;;;;;5027583;28;20030;-60
2023/01/19 07:26:02;;;;;;;4.23;2.13;;;;;;;;;;5026907;28;20083;-60
2023/01/19 07:28:30;;;;;;;29.20;2.70;;;;;;;;;;5026890;28;20531;-61
2023/01/19 07:30:57;;;;;;;2.60;1.73;;;;;;;;;;5026930;28;20033;-60
2023/01/19 07:33:25;;;;;;;1.83;1.40;;;;;;;;;;5030590;28;20379;-60
2023/01/19 07:35:52;;;;;;;2.80;1.90;;;;;;;;;;5047965;28;20078;-60
2023/01/19 07:38:19;;;;;;;2.40;2.07;;;;;;;;;;5033008;28;20051;-60
2023/01/19 07:40:46;;;;;;;3.17;1.67;;;;;;;;;;5051287;28;20067;-61
2023/01/19 07:43:13;;;;;;;2.07;1.50;;;;;;;;;;5048307;28;20037;-60
2023/01/19 07:45:39;;;;;;;4.43;2.30;;;;;;;;;;5035246;28;20443;-60
2023/01/19 07:48:06;;;;;;;2.83;2.00;;;;;;;;;;5034289;28;20033;-61
2023/01/19 07:50:33;;;;;;;2.73;2.23;;;;;;;;;;5033904;28;20067;-61
2023/01/19 07:53:05;;;;;;;1.87;1.53;;;;;;;;;;5038964;28;20484;-60
2023/01/19 07:55:31;;;;;;;1.70;1.43;;;;;;;;;;5056917;28;20037;-60
2023/01/19 07:57:58;;;;;;;2.90;1.73;;;;;;;;;;5049005;28;20025;-60
2023/01/19 08:00:25;;;;;;;2.57;1.90;;;;;;;;;;5046449;28;20025;-60
2023/01/19 08:02:52;;;;;;;3.10;2.17;;;;;;;;;;5042289;28;20490;-60
2023/01/19 08:05:19;;;;;;;10.27;1.80;;;;;;;;;;5038085;28;20484;-60
2023/01/19 08:07:47;;;;;;;1.57;1.23;;;;;;;;;;5034347;28;20447;-61
2023/01/19 08:10:14;;;;;;;2.90;1.90;;;;;;;;;;5033053;28;20021;-60
2023/01/19 08:12:41;;;;;;;3.10;2.07;;;;;;;;;;5032976;28;20487;-60
2023/01/19 08:15:09;;;;;;;3.57;2.13;;;;;;;;;;5032965;28;20052;-60
2023/01/19 08:17:36;;;;;;;3.37;2.23;;;;;;;;;;5039856;28;20557;-61
2023/01/19 08:20:02;;;;;;;2.37;1.80;;;;;;;;;;5058426;28;20029;-60
2023/01/19 08:22:29;;;;;;;1.10;1.00;;;;;;;;;;5057836;28;20033;-60
2023/01/19 08:24:55;;;;;;;2.87;1.73;;;;;;;;;;5058399;28;20495;-61
2023/01/19 08:27:22;;;;;;;4.60;1.67;;;;;;;;;;5058503;28;20028;-60
2023/01/19 08:29:49;;;;;;;2.17;1.37;;;;;;;;;;5054652;28;20033;-60
2023/01/19 08:32:15;;;;;;;2.93;1.40;;;;;;;;;;5052999;28;20057;-60
2023/01/19 08:34:42;;;;;;;1.87;1.40;;;;;;;;;;5052902;28;20040;-60
2023/01/19 08:37:09;;;;;;;1.40;1.30;;;;;;;;;;5052584;28;20039;-60
2023/01/19 08:39:35;;;;;;;1.87;1.57;;;;;;;;;;5042410;28;20117;-60
2023/01/19 08:42:02;;;;;;;1.33;1.20;;;;;;;;;;5055661;28;20033;-60
2023/01/19 08:44:29;;;;;;;3.47;2.67;;;;;;;;;;5057898;28;20028;-60
2023/01/19 08:46:55;;;;;;;1.70;1.30;;;;;;;;;;5041029;28;20499;-60
2023/01/19 08:49:22;;;;;;;1.30;0.87;;;;;;;;;;5038119;28;20025;-60
2023/01/19 08:51:49;;;;;;;3.07;2.20;;;;;;;;;;5050557;28;20100;-60
2023/01/19 08:54:15;;;;;;;2.80;1.93;;;;;;;;;;5052547;28;20021;-60
2023/01/19 08:56:42;;;;;;;2.47;1.93;;;;;;;;;;5032269;28;20033;-60
2023/01/19 08:59:09;;;;;;;1.77;1.60;;;;;;;;;;5029514;28;20037;-60
2023/01/19 09:01:36;;;;;;;1.67;1.23;;;;;;;;;;5031603;28;20091;-60
2023/01/19 09:04:03;;;;;;;2.70;1.27;;;;;;;;;;5034469;28;20033;-60
2023/01/19 09:06:29;;;;;;;2.17;1.70;;;;;;;;;;5039535;28;20178;-60
2023/01/19 09:08:56;;;;;;;3.60;2.23;;;;;;;;;;5054546;28;20380;-60
2023/01/19 09:11:23;;;;;;;1.50;1.40;;;;;;;;;;5042237;28;20029;-60
2023/01/19 09:13:49;;;;;;;3.20;2.50;;;;;;;;;;5042111;28;20040;-60
2023/01/19 09:16:16;;;;;;;2.40;1.77;;;;;;;;;;5047226;28;20068;-60
2023/01/19 09:18:44;;;;;;;3.53;2.23;;;;;;;;;;5031043;28;20537;-60
2023/01/19 09:21:11;;;;;;;2.60;2.00;;;;;;;;;;5047521;28;20036;-60
2023/01/19 09:23:38;;;;;;;3.73;2.27;;;;;;;;;;5050593;28;20107;-60
2023/01/19 09:26:05;;;;;;;1.67;1.20;;;;;;;;;;5054143;28;20029;-60
2023/01/19 09:28:32;;;;;;;4.13;2.43;;;;;;;;;;5053940;28;20025;-60
2023/01/19 09:30:59;;;;;;;2.47;1.57;;;;;;;;;;5053980;28;20053;-60
2023/01/19 09:33:26;;;;;;;2.20;1.60;;;;;;;;;;5053932;28;20021;-60
2023/01/19 09:35:53;;;;;;;1.67;1.47;;;;;;;;;;5051980;28;20258;-60
2023/01/19 09:38:21;;;;;;;2.43;1.83;;;;;;;;;;5044456;28;20044;-60
2023/01/19 09:40:52;;;;;;;1.17;1.10;;;;;;;;;;5028606;28;20291;-60
2023/01/19 09:43:37;;;;;;;4.70;2.60;;;;;;;;;;5040019;28;20455;-60
2023/01/19 09:46:11;;;;;;;2.63;2.03;;;;;;;;;;5049234;28;20712;-60
2023/01/19 09:48:37;;;;;;;6.10;2.20;;;;;;;;;;5034092;28;20206;-60
2023/01/19 09:51:07;;;;;;;4.20;2.07;;;;;;;;;;5034075;28;20422;-60
2023/01/19 09:53:34;;;;;;;2.53;2.23;;;;;;;;;;5039108;28;20290;-60
2023/01/19 09:56:00;;;;;;;5.10;2.30;;;;;;;;;;5053323;28;20639;-60
2023/01/19 09:58:28;;;;;;;2.83;1.93;;;;;;;;;;5050660;28;20025;-60
2023/01/19 10:01:03;;;;;;;2.40;1.63;;;;;;;;;;5046516;28;20284;-60
2023/01/19 10:03:30;;;;;;;2.72;2.42;;;;;;;;;;5048095;28;20359;-61
2023/01/19 10:06:05;;;;;;;2.83;2.23;;;;;;;;;;5046063;28;20067;-59
2023/01/19 10:08:38;;;;;;;2.13;1.83;;;;;;;;;;5049244;28;20274;-59
2023/01/19 10:11:11;;;;;;;1.47;1.20;;;;;;;;;;5051874;28;20091;-60
2023/01/19 10:13:41;;;;;;;1.37;1.13;;;;;;;;;;5036857;28;20266;-60
2023/01/19 10:16:24;;;;;;;1.73;1.47;;;;;;;;;;5050872;28;20308;-60
2023/01/19 10:18:53;;;;;;;4.13;1.53;;;;;;;;;;5033381;28;20274;-60
2023/01/19 10:21:20;;;;;;;3.03;1.50;;;;;;;;;;5029260;28;20281;-60
2023/01/19 10:23:53;;;;;;;1.37;1.20;;;;;;;;;;5028150;28;20100;-60
2023/01/19 10:26:23;;;;;;;2.80;1.93;;;;;;;;;;5027834;28;20310;-60
2023/01/19 10:28:51;;;;;;;2.30;1.77;;;;;;;;;;5027779;28;20366;-59
2023/01/19 10:31:19;;;;;;;2.90;1.90;;;;;;;;;;5031224;28;20267;-59
2023/01/19 10:33:45;;;;;;;6.63;2.80;;;;;;;;;;5033025;28;20262;-59
2023/01/19 10:36:17;;;;;;;1.87;1.50;;;;;;;;;;5040469;28;20258;-59
2023/01/19 10:38:44;;;;;;;1.53;1.37;;;;;;;;;;5052739;28;20629;-60
2023/01/19 10:41:16;;;;;;;1.00;0.90;;;;;;;;;;5052615;28;20266;-60
2023/01/19 10:43:44;;;;;;;1.90;1.63;;;;;;;;;;5047753;28;20277;-59
2023/01/19 10:46:21;;;;;;;3.73;1.53;;;;;;;;;;5030527;28;20273;-60
2023/01/19 10:48:50;;;;;;;1.73;1.20;;;;;;;;;;5027504;28;20837;-59
2023/01/19 10:51:17;;;;;;;1.80;1.50;;;;;;;;;;5027382;28;20290;-60
2023/01/19 10:53:55;;;;;;;2.77;2.17;;;;;;;;;;5031753;28;20290;-60
2023/01/19 10:56:27;;;;;;;1.57;1.37;;;;;;;;;;5032651;28;20312;-59
2023/01/19 10:58:53;;;;;;;2.33;1.93;;;;;;;;;;5032782;28;20626;-60
2023/01/19 11:01:22;;;;;;;2.03;1.63;;;;;;;;;;5032468;28;20263;-60
2023/01/19 11:03:49;;;;;;;8.03;2.90;;;;;;;;;;5032431;28;20267;-59
2023/01/19 11:06:24;;;;;;;1.43;1.33;;;;;;;;;;5035092;28;20292;-59
2023/01/19 11:08:52;;;;;;;1.70;1.50;;;;;;;;;;5046805;28;20289;-59
2023/01/19 11:11:19;;;;;;;10.13;1.90;;;;;;;;;;5046817;28;20044;-59
2023/01/19 11:14:01;;;;;;;5.20;2.97;;;;;;;;;;5046930;28;20307;-59
2023/01/19 11:16:30;;;;;;;3.17;2.40;;;;;;;;;;5034813;28;20262;-59
2023/01/19 11:19:00;;;;;;;2.77;2.27;;;;;;;;;;5048768;28;20269;-59
2023/01/19 11:21:28;;;;;;;6.43;3.53;;;;;;;;;;5051819;28;20796;-60
2023/01/19 11:23:57;;;;;;;4.67;2.83;;;;;;;;;;5052334;28;20294;-59
2023/01/19 11:26:25;;;;;;;3.23;2.27;;;;;;;;;;5051714;28;20308;-60
2023/01/19 11:28:53;;;;;;;1.67;1.57;;;;;;;;;;5046912;28;20262;-59
2023/01/19 11:31:30;;;;;;;4.90;2.43;;;;;;;;;;5046445;28;20705;-59
2023/01/19 11:34:21;;;;;;;5.87;2.57;;;;;;;;;;5046450;28;20354;-59
2023/01/19 11:36:59;;;;;;;5.77;2.20;;;;;;;;;;5027355;28;20267;-60
2023/01/19 11:39:27;;;;;;;3.90;2.10;;;;;;;;;;5032009;28;20255;-59
2023/01/19 11:41:56;;;;;;;4.80;2.07;;;;;;;;;;5031575;28;20344;-59
2023/01/19 11:44:24;;;;;;;4.73;2.17;;;;;;;;;;5033205;28;20346;-59
2023/01/19 11:46:56;;;;;;;2.37;1.83;;;;;;;;;;5050233;28;20272;-59
2023/01/19 11:49:32;;;;;;;3.87;2.80;;;;;;;;;;5049973;28;20270;-60
2023/01/19 11:52:04;;;;;;;1.70;1.27;;;;;;;;;;5031763;28;20276;-60
2023/01/19 11:54:41;;;;;;;2.20;1.97;;;;;;;;;;5026085;28;20267;-59
2023/01/19 11:57:13;;;;;;;2.20;1.93;;;;;;;;;;5043706;28;20270;-59
2023/01/19 11:59:40;;;;;;;2.90;1.87;;;;;;;;;;5048278;28;20288;-59
2023/01/19 12:02:20;;;;;;;4.37;2.50;;;;;;;;;;5051181;28;20286;-59
2023/01/19 12:04:48;;;;;;;3.10;2.37;;;;;;;;;;5051283;28;20289;-59
2023/01/19 12:07:17;;;;;;;3.73;2.07;;;;;;;;;;5051606;28;20266;-60
2023/01/19 12:09:46;;;;;;;4.43;2.37;;;;;;;;;;5051554;28;20264;-59
2023/01/19 12:12:12;;;;;;;3.77;3.17;;;;;;;;;;5048318;28;20368;-59
2023/01/19 12:14:57;;;;;;;5.53;2.83;;;;;;;;;;5046471;28;20250;-59
2023/01/19 12:17:26;;;;;;;5.18;2.63;;;;;;;;;;5032133;28;20274;-59
2023/01/19 12:20:00;;;;;;;3.90;2.80;;;;;;;;;;5026245;28;20500;-59
2023/01/19 12:22:29;;;;;;;2.13;1.92;;;;;;;;;;5029286;28;20297;-59
2023/01/19 12:25:01;;;;;;;2.27;1.63;;;;;;;;;;5031910;28;20060;-59
2023/01/19 12:27:39;;;;;;;1.53;1.30;;;;;;;;;;5031953;28;20266;-59
2023/01/19 12:30:16;;;;;;;4.40;3.07;;;;;;;;;;5031660;28;20263;-59
2023/01/19 12:32:42;;;;;;;3.10;2.03;;;;;;;;;;5035444;28;20282;-59
2023/01/19 12:35:29;;;;;;;11.93;2.53;;;;;;;;;;5030860;28;20809;-60
2023/01/19 12:37:56;;;;;;;3.30;2.67;;;;;;;;;;5049412;28;20273;-59
2023/01/19 12:40:25;;;;;;;3.80;1.90;;;;;;;;;;5049592;28;20274;-59
2023/01/19 12:43:03;;;;;;;2.40;1.50;;;;;;;;;;5049342;28;20333;-59
2023/01/19 12:45:33;;;;;;;6.27;3.77;;;;;;;;;;5054440;28;22432;-59
2023/01/19 12:48:01;;;;;;;3.93;2.77;;;;;;;;;;5046242;28;20757;-59
2023/01/19 12:50:31;;;;;;;3.53;2.33;;;;;;;;;;5034718;28;20275;-59
2023/01/19 12:53:01;;;;;;;18.97;2.80;;;;;;;;;;5034951;28;20278;-59
2023/01/19 12:55:32;;;;;;;2.30;1.97;;;;;;;;;;5034869;28;20290;-59
2023/01/19 12:58:12;;;;;;;3.93;2.77;;;;;;;;;;5029491;28;20263;-59
2023/01/19 13:00:43;;;;;;;4.80;3.27;;;;;;;;;;5030337;28;20795;-59
2023/01/19 13:03:18;;;;;;;2.77;2.10;;;;;;;;;;5029348;28;20289;-59
2023/01/19 13:05:55;;;;;;;4.13;2.70;;;;;;;;;;5029905;28;20301;-59
2023/01/19 13:08:23;;;;;;;3.80;3.17;;;;;;;;;;5034965;28;20610;-59
2023/01/19 13:11:02;;;;;;;4.40;2.53;;;;;;;;;;5034714;28;20685;-59
2023/01/19 13:13:45;;;;;;;3.23;2.27;;;;;;;;;;5034749;28;20277;-59
2023/01/19 13:16:18;;;;;;;4.50;3.60;;;;;;;;;;5038578;28;20775;-60
2023/01/19 13:18:52;;;;;;;6.97;3.73;;;;;;;;;;5041145;28;20258;-60
2023/01/19 13:21:31;;;;;;;3.10;2.45;;;;;;;;;;5039956;28;20267;-59
2023/01/19 13:23:57;;;;;;;4.67;3.07;;;;;;;;;;5029116;28;20103;-60
2023/01/19 13:26:30;;;;;;;5.47;3.33;;;;;;;;;;5028985;28;20275;-59
2023/01/19 13:28:58;;;;;;;5.10;3.20;;;;;;;;;;5031977;28;20749;-60
2023/01/19 13:31:25;;;;;;;1.80;1.50;;;;;;;;;;5033864;28;20267;-59
2023/01/19 13:33:57;;;;;;;3.07;2.17;;;;;;;;;;5034307;28;20254;-60
2023/01/19 13:36:29;;;;;;;3.43;2.67;;;;;;;;;;5043514;28;20636;-59
2023/01/19 13:38:57;;;;;;;4.10;2.27;;;;;;;;;;5043218;28;20674;-60
2023/01/19 13:41:25;;;;;;;6.67;3.23;;;;;;;;;;5048488;28;20342;-60
2023/01/19 13:44:02;;;;;;;3.90;2.43;;;;;;;;;;5043364;28;20251;-59
2023/01/19 13:46:30;;;;;;;3.50;2.97;;;;;;;;;;5028612;28;20326;-59
2023/01/19 13:48:58;;;;;;;10.87;3.83;;;;;;;;;;5029039;28;20309;-59
2023/01/19 13:51:25;;;;;;;5.20;3.47;;;;;;;;;;5031577;28;20247;-60
2023/01/19 13:53:56;;;;;;;3.83;3.40;;;;;;;;;;5034011;28;20251;-60
2023/01/19 13:56:23;;;;;;;3.40;2.30;;;;;;;;;;5052077;28;20542;-60
2023/01/19 13:59:08;;;;;;;5.73;3.53;;;;;;;;;;5053529;28;20262;-59
2023/01/19 14:01:35;;;;;;;5.28;2.83;;;;;;;;;;5053298;28;20636;-59
2023/01/19 14:04:02;;;;;;;11.57;3.07;;;;;;;;;;5049600;28;20029;-59
2023/01/19 14:06:37;;;;;;;46.83;4.87;;;;;;;;;;5047975;28;20298;-60
2023/01/19 14:09:08;;;;;;;13.03;5.50;;;;;;;;;;5047592;28;20278;-60
2023/01/19 14:11:35;;;;;;;21.50;6.17;;;;;;;;;;5047572;28;20736;-60
2023/01/19 14:14:02;;;;;;;10.03;4.27;;;;;;;;;;5051951;28;20762;-60
2023/01/19 14:16:28;;;;;;;8.53;4.10;;;;;;;;;;5045402;28;20354;-60
2023/01/19 14:19:03;;;;;;;18.70;3.40;;;;;;;;;;5048630;28;20061;-60
2023/01/19 14:21:40;;;;;;;12.00;3.83;;;;;;;;;;5036086;28;20091;-60
2023/01/19 14:24:08;;;;;;;4.63;2.07;;;;;;;;;;5033426;28;20028;-60
2023/01/19 14:26:38;;;;;;;5.80;3.67;;;;;;;;;;5028370;28;20033;-61
2023/01/19 14:29:10;;;;;;;3.43;2.57;;;;;;;;;;5027725;28;20104;-61
2023/01/19 14:31:45;;;;;;;4.30;3.40;;;;;;;;;;5027564;28;20052;-60
2023/01/19 14:34:30;;;;;;;2.53;1.80;;;;;;;;;;5027755;28;20048;-60
2023/01/19 14:36:56;;;;;;;3.00;1.75;;;;;;;;;;5048344;28;20032;-60
2023/01/19 14:39:25;;;;;;;2.50;2.07;;;;;;;;;;5033786;28;20021;-61
2023/01/19 14:41:52;;;;;;;6.40;2.90;;;;;;;;;;5032689;28;20104;-61
2023/01/19 14:44:28;;;;;;;4.77;3.10;;;;;;;;;;5033814;28;20025;-61
2023/01/19 14:46:56;;;;;;;11.97;2.40;;;;;;;;;;5035003;28;20096;-61
2023/01/19 14:49:26;;;;;;;3.27;2.50;;;;;;;;;;5027205;28;20037;-61
2023/01/19 14:51:54;;;;;;;12.60;3.30;;;;;;;;;;5032685;28;20388;-61
2023/01/19 14:54:27;;;;;;;9.13;3.30;;;;;;;;;;5046211;28;20025;-61
2023/01/19 14:56:54;;;;;;;8.47;3.53;;;;;;;;;;5046650;28;20029;-61
2023/01/19 14:59:20;;;;;;;6.37;3.73;;;;;;;;;;5051939;28;20021;-61
2023/01/19 15:01:47;;;;;;;5.00;2.63;;;;;;;;;;5039656;28;20037;-61
2023/01/19 15:04:14;;;;;;;5.37;3.20;;;;;;;;;;5032504;28;20540;-61
2023/01/19 15:06:44;;;;;;;7.47;2.00;;;;;;;;;;5032477;28;20492;-61